Time;durP1;ratioP1;P1;durP2;ratioP2;P2;SDS_P1;SDS_P2;PMS_P1;PMS_P2;Temp;Humidity;BMP_temperature;BMP_pressure;BME280_temperature;BME280_humidity;BME280_pressure;Samples;Min_cycle;Max_cycle;Signal;HPM_P1;HPM_P2
2023/10/16 00:00:32;;;;;;;2.73;2.30;;;3.00;99.90;;;;;;5058772;28;20500;-60
2023/10/16 00:02:59;;;;;;;5.43;2.47;;;3.00;99.90;;;;;;5054209;28;20438;-59
2023/10/16 00:05:29;;;;;;;4.83;2.53;;;3.00;99.90;;;;;;5052757;28;20437;-58
2023/10/16 00:07:56;;;;;;;4.00;3.00;;;2.90;99.90;;;;;;5061295;28;21158;-61
2023/10/16 00:10:23;;;;;;;6.87;2.43;;;2.90;99.90;;;;;;5054071;28;20429;-59
2023/10/16 00:12:49;;;;;;;5.77;2.43;;;2.90;99.90;;;;;;5050001;28;20464;-59
2023/10/16 00:15:16;;;;;;;2.80;1.87;;;2.80;99.90;;;;;;5052654;28;20894;-60
2023/10/16 00:17:43;;;;;;;3.83;2.53;;;2.90;99.90;;;;;;5054794;28;20961;-61
2023/10/16 00:20:23;;;;;;;7.53;2.87;;;2.80;99.90;;;;;;5057728;28;20557;-59
2023/10/16 00:22:50;;;;;;;5.03;2.80;;;2.80;99.90;;;;;;5053541;28;20493;-64
2023/10/16 00:25:18;;;;;;;4.97;2.10;;;2.80;99.90;;;;;;5049990;28;20430;-61
2023/10/16 00:27:44;;;;;;;2.70;1.90;;;2.80;99.90;;;;;;5051634;28;20433;-60
2023/10/16 00:30:10;;;;;;;3.80;2.10;;;2.70;99.90;;;;;;5051195;28;20436;-57
2023/10/16 00:32:37;;;;;;;3.40;2.00;;;2.70;99.90;;;;;;5055176;28;20943;-60
2023/10/16 00:35:03;;;;;;;3.60;2.27;;;2.70;99.90;;;;;;5054588;28;20667;-59
2023/10/16 00:37:31;;;;;;;3.37;2.33;;;2.70;99.90;;;;;;5055852;28;20471;-59
2023/10/16 00:39:57;;;;;;;2.60;2.30;;;2.70;99.90;;;;;;5057174;28;20503;-59
2023/10/16 00:42:23;;;;;;;3.00;2.20;;;2.70;99.90;;;;;;5052194;28;20437;-59
2023/10/16 00:44:56;;;;;;;4.27;2.60;;;2.60;99.90;;;;;;5053629;28;20167;-60
2023/10/16 00:47:21;;;;;;;4.00;2.40;;;2.70;99.90;;;;;;5049398;28;20459;-61
2023/10/16 00:49:49;;;;;;;3.50;2.20;;;2.60;99.90;;;;;;5054164;28;21079;-59
2023/10/16 00:52:16;;;;;;;3.30;2.40;;;2.60;99.90;;;;;;5054297;28;20583;-59
2023/10/16 00:54:42;;;;;;;3.17;2.20;;;2.60;99.90;;;;;;5059570;28;20481;-59
2023/10/16 00:57:10;;;;;;;4.53;2.30;;;2.60;99.90;;;;;;5055116;28;20429;-58
2023/10/16 00:59:36;;;;;;;1.80;1.70;;;2.60;99.90;;;;;;5056020;28;20488;-59
2023/10/16 01:04:37;;;;;;;5.63;1.83;;;2.50;99.90;;;;;;5055212;28;20951;-61
2023/10/16 01:07:05;;;;;;;3.90;2.53;;;2.50;99.90;;;;;;5053287;28;20446;-61
2023/10/16 01:09:34;;;;;;;4.10;2.27;;;2.50;99.90;;;;;;5057137;28;20423;-58
2023/10/16 01:12:00;;;;;;;3.00;1.93;;;2.40;99.90;;;;;;5054249;28;20868;-60
2023/10/16 01:14:26;;;;;;;3.37;2.40;;;2.40;99.90;;;;;;5057372;28;20456;-59
2023/10/16 01:16:54;;;;;;;4.40;2.70;;;2.40;99.90;;;;;;5059692;28;20439;-59
2023/10/16 01:19:20;;;;;;;5.30;2.47;;;2.40;99.90;;;;;;5052264;28;20479;-60
2023/10/16 01:21:49;;;;;;;3.53;2.27;;;2.40;99.90;;;;;;5049615;28;20533;-60
2023/10/16 01:24:16;;;;;;;2.03;1.90;;;2.40;99.90;;;;;;5054948;28;20585;-60
2023/10/16 01:26:42;;;;;;;5.00;2.20;;;2.30;99.90;;;;;;5054889;28;20954;-60
2023/10/16 01:29:11;;;;;;;4.53;2.13;;;2.30;99.90;;;;;;5050127;28;20445;-61
2023/10/16 01:31:37;;;;;;;2.80;1.97;;;2.30;99.90;;;;;;5047882;28;20422;-59
2023/10/16 01:34:04;;;;;;;4.10;2.40;;;2.30;99.90;;;;;;5051365;28;20443;-59
2023/10/16 01:36:33;;;;;;;2.57;2.37;;;2.20;99.90;;;;;;5052877;28;20439;-59
2023/10/16 01:39:04;;;;;;;3.60;2.30;;;2.30;99.90;;;;;;5053208;28;20468;-60
2023/10/16 01:41:30;;;;;;;2.20;2.00;;;2.30;99.90;;;;;;5031914;28;20477;-59
2023/10/16 01:43:56;;;;;;;3.43;2.57;;;2.30;99.90;;;;;;5054563;28;20447;-60
2023/10/16 01:46:21;;;;;;;7.23;2.27;;;2.30;99.90;;;;;;5055479;28;20821;-59
2023/10/16 01:48:49;;;;;;;3.70;2.17;;;2.30;99.90;;;;;;5055351;28;20202;-60
2023/10/16 01:51:19;;;;;;;2.30;2.00;;;2.20;99.90;;;;;;5051348;28;20177;-59
2023/10/16 01:53:47;;;;;;;2.80;2.40;;;2.20;99.90;;;;;;5053746;28;20467;-59
2023/10/16 01:56:13;;;;;;;3.50;2.23;;;2.20;99.90;;;;;;5056230;28;20511;-61
2023/10/16 01:58:47;;;;;;;4.70;2.47;;;2.20;99.90;;;;;;5054458;28;20470;-59
2023/10/16 02:01:14;;;;;;;2.40;2.20;;;2.20;99.90;;;;;;5047694;28;20456;-59
2023/10/16 02:03:43;;;;;;;3.20;2.33;;;2.10;99.90;;;;;;5034528;28;20518;-60
2023/10/16 02:06:12;;;;;;;3.30;2.40;;;2.10;99.90;;;;;;5056040;28;20429;-63
2023/10/16 02:08:43;;;;;;;3.47;2.00;;;2.10;99.90;;;;;;5053268;28;20496;-59
2023/10/16 02:11:10;;;;;;;2.97;2.50;;;2.10;99.90;;;;;;5057791;28;20432;-58
2023/10/16 02:13:36;;;;;;;3.60;2.13;;;2.00;99.90;;;;;;5060058;28;21169;-62
2023/10/16 02:16:06;;;;;;;3.70;2.13;;;2.00;99.90;;;;;;5057882;28;21082;-59
2023/10/16 02:18:37;;;;;;;5.13;2.50;;;2.00;99.90;;;;;;5056828;28;21509;-60
2023/10/16 02:21:11;;;;;;;2.33;2.10;;;2.00;99.90;;;;;;5054046;28;20661;-58
2023/10/16 02:23:37;;;;;;;2.80;2.50;;;2.00;99.90;;;;;;5056590;28;20444;-60
2023/10/16 02:26:05;;;;;;;3.90;2.60;;;2.00;99.90;;;;;;5062229;28;20826;-59
2023/10/16 02:28:32;;;;;;;2.63;2.33;;;2.00;99.90;;;;;;5040225;28;20547;-58
2023/10/16 02:31:05;;;;;;;2.60;2.40;;;2.10;99.90;;;;;;5058214;28;20513;-62
2023/10/16 02:33:35;;;;;;;3.60;2.17;;;2.10;99.90;;;;;;5041906;28;20444;-60
2023/10/16 02:36:02;;;;;;;4.33;2.57;;;2.10;99.90;;;;;;5059932;28;20558;-60
2023/10/16 02:38:28;;;;;;;4.63;2.70;;;2.10;99.90;;;;;;5059483;28;20672;-59
2023/10/16 02:41:00;;;;;;;6.10;2.57;;;2.10;99.90;;;;;;5055334;28;20571;-60
2023/10/16 02:43:26;;;;;;;5.30;3.13;;;2.10;99.90;;;;;;5060715;28;20627;-60
2023/10/16 02:45:52;;;;;;;4.47;2.47;;;2.10;99.90;;;;;;5053196;28;20497;-59
2023/10/16 02:48:20;;;;;;;3.97;2.83;;;2.10;99.90;;;;;;5056119;28;20460;-62
2023/10/16 02:51:06;;;;;;;2.80;2.50;;;2.00;99.90;;;;;;5058864;28;20197;-59
2023/10/16 02:53:34;;;;;;;4.20;2.30;;;2.00;99.90;;;;;;5060557;28;20435;-64
2023/10/16 02:58:55;;;;;;;4.40;2.70;;;2.00;99.90;;;;;;5038200;28;20452;-61
2023/10/16 03:01:21;;;;;;;5.50;3.07;;;2.00;99.90;;;;;;5033716;28;20475;-62
2023/10/16 03:03:48;;;;;;;3.17;2.37;;;2.00;99.90;;;;;;5058118;28;20186;-60
2023/10/16 03:06:15;;;;;;;3.10;2.27;;;2.00;99.90;;;;;;5052691;28;20444;-60
2023/10/16 03:08:48;;;;;;;5.73;2.40;;;2.00;99.90;;;;;;5054473;28;20448;-62
2023/10/16 03:11:14;;;;;;;2.30;2.10;;;1.90;99.90;;;;;;5052623;28;20428;-60
2023/10/16 03:13:43;;;;;;;2.30;2.10;;;1.90;99.90;;;;;;5053915;28;20844;-59
2023/10/16 03:16:15;;;;;;;3.30;2.67;;;1.90;99.90;;;;;;5062521;28;20461;-59
2023/10/16 03:18:43;;;;;;;2.50;2.30;;;1.90;99.90;;;;;;5058013;28;20832;-59
2023/10/16 03:23:43;;;;;;;3.40;2.30;;;1.80;99.90;;;;;;5057398;28;20428;-59
2023/10/16 03:28:47;;;;;;;3.30;3.00;;;1.80;99.90;;;;;;5053039;28;20456;-60
2023/10/16 03:31:14;;;;;;;3.10;2.20;;;1.80;99.90;;;;;;5050874;28;20452;-59
2023/10/16 03:33:39;;;;;;;2.33;2.13;;;1.70;99.90;;;;;;5035986;28;20449;-58
2023/10/16 03:36:05;;;;;;;2.20;2.00;;;1.70;99.90;;;;;;5054053;28;20533;-60
2023/10/16 03:38:37;;;;;;;4.20;2.13;;;1.60;99.90;;;;;;5055922;28;20190;-58
2023/10/16 03:43:57;;;;;;;3.03;2.10;;;1.60;99.90;;;;;;5056584;28;20408;-59
2023/10/16 03:46:29;;;;;;;6.30;3.00;;;1.50;99.90;;;;;;5057662;28;20522;-61
2023/10/16 03:48:57;;;;;;;5.63;2.23;;;1.60;99.90;;;;;;5039791;28;20453;-62
2023/10/16 03:51:23;;;;;;;3.03;2.17;;;1.60;99.90;;;;;;5051044;28;20505;-62
2023/10/16 03:53:52;;;;;;;4.20;2.30;;;1.60;99.90;;;;;;5056272;28;20442;-63
2023/10/16 03:56:18;;;;;;;2.30;2.10;;;1.50;99.90;;;;;;5056623;28;20443;-59
2023/10/16 03:58:44;;;;;;;2.70;2.23;;;1.60;99.90;;;;;;5055124;28;20457;-59
2023/10/16 04:01:10;;;;;;;3.93;2.17;;;1.50;99.90;;;;;;5054811;28;20468;-59
2023/10/16 04:03:50;;;;;;;5.70;2.70;;;1.60;99.90;;;;;;5067692;28;20205;-59
2023/10/16 04:06:20;;;;;;;8.40;3.67;;;1.60;99.90;;;;;;5099410;22;20497;-58
2023/10/16 04:08:47;;;;;;;9.57;4.97;;;1.60;99.90;;;;;;5087587;28;21197;-59
2023/10/16 04:11:14;;;;;;;8.77;4.00;;;1.60;99.90;;;;;;5080206;28;20458;-59
2023/10/16 04:13:47;;;;;;;6.10;3.43;;;1.60;99.90;;;;;;5085437;28;20426;-58
2023/10/16 04:16:30;;;;;;;6.93;4.57;;;1.60;99.90;;;;;;5083401;28;20531;-58
2023/10/16 04:19:09;;;;;;;4.80;3.37;;;1.60;99.90;;;;;;5083829;28;20442;-61
2023/10/16 04:21:45;;;;;;;4.17;2.83;;;1.60;99.90;;;;;;5082355;28;20977;-59
2023/10/16 04:34:56;;;;;;;4.33;2.83;;;1.60;99.90;;;;;;5083674;28;20430;-58
2023/10/16 04:50:29;;;;;;;4.73;3.33;;;1.50;99.90;;;;;;5081159;28;20442;-58
2023/10/16 05:17:21;;;;;;;4.10;3.50;;;1.40;99.90;;;;;;5079495;28;20667;-60
2023/10/16 05:19:53;;;;;;;8.57;3.53;;;1.40;99.90;;;;;;5076177;28;20552;-60
2023/10/16 06:14:36;;;;;;;4.47;3.17;;;1.40;99.90;;;;;;5088427;28;20437;-61
2023/10/16 06:17:23;;;;;;;12.70;4.07;;;1.40;99.90;;;;;;5083539;28;20442;-61
2023/10/16 06:19:51;;;;;;;3.90;2.93;;;1.40;99.90;;;;;;5088752;28;20466;-61
2023/10/16 06:22:16;;;;;;;5.13;3.87;;;1.50;99.90;;;;;;5083358;28;20945;-60
2023/10/16 06:24:46;;;;;;;3.90;3.50;;;1.50;99.90;;;;;;5090763;28;20431;-60
2023/10/16 06:27:19;;;;;;;6.43;3.83;;;1.60;99.90;;;;;;5080661;28;20193;-60
2023/10/16 06:29:51;;;;;;;12.50;3.00;;;1.60;99.90;;;;;;5084985;28;20906;-61
2023/10/16 06:32:26;;;;;;;8.70;3.10;;;1.60;99.90;;;;;;5084893;28;20427;-60
2023/10/16 06:34:57;;;;;;;4.53;3.00;;;1.60;99.90;;;;;;5088445;28;20446;-61
2023/10/16 06:37:24;;;;;;;4.53;4.13;;;1.70;99.90;;;;;;5087069;28;21060;-61
2023/10/16 06:40:00;;;;;;;6.17;3.47;;;1.70;99.90;;;;;;5086832;28;20519;-62
2023/10/16 06:42:30;;;;;;;5.93;3.20;;;1.80;99.90;;;;;;5082721;28;20435;-61
2023/10/16 06:45:06;;;;;;;4.40;3.20;;;1.90;99.90;;;;;;5082069;28;20435;-61
2023/10/16 06:47:35;;;;;;;8.40;3.83;;;1.90;99.90;;;;;;5083146;28;20871;-61
2023/10/16 06:53:03;;;;;;;6.10;4.87;;;2.00;99.90;;;;;;5062286;28;20455;-61
2023/10/16 06:55:28;;;;;;;6.53;3.77;;;2.10;99.90;;;;;;5084339;28;20437;-61
2023/10/16 06:57:54;;;;;;;3.77;3.30;;;2.10;99.90;;;;;;5086434;28;20530;-61
2023/10/16 07:00:25;;;;;;;4.43;3.33;;;2.10;99.90;;;;;;5081371;28;20496;-61
2023/10/16 07:02:54;;;;;;;3.57;2.97;;;2.20;99.90;;;;;;5081079;28;20466;-61
2023/10/16 07:05:42;;;;;;;7.20;3.53;;;2.20;99.90;;;;;;5081595;28;20519;-61
2023/10/16 07:08:17;;;;;;;6.90;3.80;;;2.30;99.90;;;;;;5082921;28;20724;-59
2023/10/16 07:10:51;;;;;;;11.17;4.23;;;2.30;99.90;;;;;;5079810;28;20466;-61
2023/10/16 07:13:27;;;;;;;5.30;3.10;;;2.40;99.90;;;;;;5085331;28;20508;-61
2023/10/16 07:16:03;;;;;;;3.50;3.20;;;2.50;99.90;;;;;;5082533;28;20561;-61
2023/10/16 07:18:33;;;;;;;7.17;4.00;;;2.60;99.90;;;;;;5075547;28;20431;-61
2023/10/16 07:21:06;;;;;;;4.70;3.60;;;2.70;99.90;;;;;;5084426;28;20498;-61
2023/10/16 07:23:36;;;;;;;6.17;4.07;;;2.70;99.90;;;;;;5083892;28;20443;-61
2023/10/16 07:26:06;;;;;;;4.43;4.03;;;2.80;99.90;;;;;;5088972;28;20457;-61
2023/10/16 07:28:32;;;;;;;6.73;3.70;;;2.90;99.90;;;;;;5095843;28;20448;-61
2023/10/16 07:30:59;;;;;;;7.47;4.07;;;3.00;99.90;;;;;;5088374;28;20462;-61
2023/10/16 07:33:26;;;;;;;5.90;4.43;;;3.00;99.90;;;;;;5091592;28;20184;-61
2023/10/16 07:35:54;;;;;;;6.00;4.17;;;3.10;99.90;;;;;;5097350;28;20414;-59
2023/10/16 07:38:22;;;;;;;8.73;4.00;;;3.20;99.90;;;;;;5091289;28;20411;-59
2023/10/16 07:40:58;;;;;;;7.50;4.10;;;3.30;99.90;;;;;;5087119;28;20551;-61
2023/10/16 07:43:28;;;;;;;8.13;4.30;;;3.50;99.90;;;;;;5095489;28;20515;-62
2023/10/16 07:45:56;;;;;;;10.50;4.63;;;3.70;99.90;;;;;;5095661;28;20442;-62
2023/10/16 07:48:21;;;;;;;8.90;4.47;;;3.80;99.90;;;;;;5094394;28;20415;-62
2023/10/16 07:50:50;;;;;;;9.23;5.00;;;3.90;99.90;;;;;;5084157;28;20426;-62
2023/10/16 07:53:19;;;;;;;7.43;3.70;;;4.00;99.90;;;;;;5085118;28;20257;-61
2023/10/16 07:55:51;;;;;;;4.57;3.90;;;4.20;99.90;;;;;;5082520;28;20424;-61
2023/10/16 07:58:33;;;;;;;5.67;3.80;;;4.30;99.90;;;;;;5082708;28;20427;-61
2023/10/16 08:01:17;;;;;;;3.87;3.33;;;4.40;99.90;;;;;;5076421;28;21032;-62
2023/10/16 08:03:47;;;;;;;10.23;3.80;;;4.60;99.90;;;;;;5082991;28;20427;-62
2023/10/16 08:06:23;;;;;;;5.23;3.40;;;4.70;99.90;;;;;;5086120;28;20460;-61
2023/10/16 08:08:50;;;;;;;5.80;3.50;;;4.80;99.90;;;;;;5093231;28;20427;-62
2023/10/16 08:11:20;;;;;;;8.33;3.60;;;4.90;99.90;;;;;;5082005;28;20440;-61
2023/10/16 08:13:48;;;;;;;3.23;2.93;;;5.00;99.90;;;;;;5082922;28;20448;-62
2023/10/16 08:16:18;;;;;;;4.90;3.60;;;5.10;99.90;;;;;;5084041;28;20451;-62
2023/10/16 08:18:51;;;;;;;5.07;3.70;;;5.20;99.90;;;;;;5086223;28;20528;-62
2023/10/16 08:21:24;;;;;;;6.10;3.70;;;5.30;99.90;;;;;;5075361;28;20550;-61
2023/10/16 08:23:57;;;;;;;6.10;2.90;;;5.40;99.90;;;;;;5088022;28;20431;-62
2023/10/16 08:28:54;;;;;;;4.10;2.80;;;5.60;99.90;;;;;;5083554;28;20515;-63
2023/10/16 08:31:22;;;;;;;4.40;2.97;;;5.70;99.90;;;;;;5081011;28;21233;-63
2023/10/16 08:33:54;;;;;;;3.37;2.77;;;5.90;99.40;;;;;;5084773;28;20432;-62
2023/10/16 08:36:23;;;;;;;3.10;2.37;;;6.00;98.30;;;;;;5079072;28;20440;-62
2023/10/16 08:38:53;;;;;;;3.17;2.50;;;6.10;97.40;;;;;;5084229;28;20427;-62
2023/10/16 08:42:24;;;;;;;2.30;2.10;;;6.20;97.20;;;;;;5083334;28;20463;-62
2023/10/16 08:44:24;;;;;;;4.63;2.27;;;6.40;94.70;;;;;;5072355;28;20433;-62
2023/10/16 08:49:24;;;;;;;10.67;4.37;;;6.50;91.50;;;;;;5083772;28;20174;-63
2023/10/16 08:51:54;;;;;;;3.67;2.83;;;6.60;90.50;;;;;;5085365;28;20514;-62
2023/10/16 08:54:35;;;;;;;4.80;2.63;;;6.60;89.20;;;;;;5078860;28;20473;-62
2023/10/16 08:57:03;;;;;;;3.00;2.20;;;6.70;89.60;;;;;;5080670;28;20455;-62
2023/10/16 08:59:30;;;;;;;3.70;2.47;;;6.80;85.50;;;;;;5081149;28;20442;-62
2023/10/16 09:01:57;;;;;;;3.40;2.20;;;6.90;84.80;;;;;;5085472;28;20420;-62
2023/10/16 09:04:26;;;;;;;4.37;2.90;;;7.00;83.20;;;;;;5080442;28;20485;-62
2023/10/16 09:06:52;;;;;;;3.17;2.10;;;7.20;82.20;;;;;;5080915;28;20471;-62
2023/10/16 09:09:18;;;;;;;6.57;1.97;;;7.30;80.10;;;;;;5082434;28;20423;-61
2023/10/16 09:11:47;;;;;;;2.47;2.27;;;7.40;78.00;;;;;;5091864;28;20184;-62
2023/10/16 09:14:17;;;;;;;5.40;2.10;;;7.50;75.20;;;;;;5081647;28;20796;-62
2023/10/16 09:16:47;;;;;;;3.20;2.07;;;7.60;74.20;;;;;;5078933;28;20475;-62
2023/10/16 09:19:18;;;;;;;2.00;1.80;;;7.70;72.60;;;;;;5087368;28;20973;-62
2023/10/16 09:21:43;;;;;;;3.83;1.80;;;7.70;71.10;;;;;;5079163;28;20511;-61
2023/10/16 09:24:12;;;;;;;4.97;2.30;;;7.80;70.00;;;;;;5088869;28;20428;-61
2023/10/16 09:26:44;;;;;;;4.57;2.30;;;7.90;69.60;;;;;;5086005;28;20446;-62
2023/10/16 09:29:20;;;;;;;3.10;2.13;;;8.10;68.90;;;;;;5087059;28;20442;-62
2023/10/16 09:31:46;;;;;;;7.40;1.90;;;8.20;68.10;;;;;;5088699;28;20433;-62
2023/10/16 09:34:19;;;;;;;3.63;1.80;;;8.40;67.20;;;;;;5090204;28;20547;-61
2023/10/16 09:39:34;;;;;;;5.30;2.00;;;8.70;65.30;;;;;;5086480;28;20524;-61
2023/10/16 09:42:12;;;;;;;3.53;1.93;;;8.80;64.20;;;;;;5089252;28;20441;-61
2023/10/16 09:44:40;;;;;;;4.87;2.07;;;9.00;64.00;;;;;;5082605;28;20451;-61
2023/10/16 09:47:25;;;;;;;1.73;1.63;;;9.10;62.70;;;;;;5078343;28;20439;-61
2023/10/16 09:50:11;;;;;;;3.20;1.83;;;9.10;61.50;;;;;;5084289;28;20419;-61
2023/10/16 09:52:39;;;;;;;7.83;2.10;;;9.20;62.00;;;;;;5086413;28;20420;-62
2023/10/16 09:55:05;;;;;;;2.40;2.00;;;9.30;61.00;;;;;;5082403;28;20423;-61
2023/10/16 09:57:33;;;;;;;2.90;1.83;;;9.30;60.10;;;;;;5084596;28;20438;-61
2023/10/16 10:00:28;;;;;;;2.27;1.73;;;9.30;59.60;;;;;;5074896;28;20456;-62
2023/10/16 10:02:51;;;;;;;2.27;1.60;;;9.40;59.30;;;;;;5080179;28;20428;-61
2023/10/16 10:05:22;;;;;;;7.20;3.07;;;9.40;58.80;;;;;;5082056;28;20420;-61
2023/10/16 10:07:50;;;;;;;2.40;1.90;;;9.50;58.60;;;;;;5082892;28;20457;-61
2023/10/16 10:13:10;;;;;;;1.93;1.50;;;9.70;58.20;;;;;;5085205;28;20467;-61
2023/10/16 10:15:47;;;;;;;2.10;1.90;;;9.80;57.60;;;;;;5079427;28;20442;-61
2023/10/16 10:18:42;;;;;;;5.47;1.80;;;9.80;56.60;;;;;;5077755;28;20604;-62
2023/10/16 10:21:30;;;;;;;2.20;1.80;;;9.90;56.40;;;;;;5079527;28;20954;-61
2023/10/16 10:24:02;;;;;;;8.60;2.00;;;10.00;54.70;;;;;;5078844;28;20445;-62
2023/10/16 10:26:32;;;;;;;2.87;1.83;;;10.10;54.80;;;;;;5079931;28;20455;-62
2023/10/16 10:29:09;;;;;;;2.00;1.80;;;10.10;54.70;;;;;;5084141;28;20412;-55
2023/10/16 10:31:41;;;;;;;3.07;1.80;;;10.30;54.30;;;;;;5081118;28;20518;-64
2023/10/16 10:34:23;;;;;;;2.70;1.93;;;10.40;53.70;;;;;;5088913;28;20435;-61
2023/10/16 10:36:50;;;;;;;3.17;1.40;;;10.50;52.80;;;;;;5085670;28;21030;-62
2023/10/16 10:39:22;;;;;;;3.93;1.90;;;10.60;52.70;;;;;;5075159;28;20423;-61
2023/10/16 10:41:58;;;;;;;1.80;1.33;;;10.70;52.70;;;;;;5075303;28;22495;-62
2023/10/16 10:44:44;;;;;;;4.93;2.03;;;10.90;52.90;;;;;;5087147;28;20443;-62
2023/10/16 10:47:30;;;;;;;2.73;1.70;;;11.10;51.30;;;;;;5077790;28;20441;-61
2023/10/16 10:49:59;;;;;;;9.70;4.00;;;11.20;50.20;;;;;;5086467;28;20882;-62
2023/10/16 10:52:27;;;;;;;2.97;1.90;;;11.20;50.50;;;;;;5087095;28;20432;-65
2023/10/16 10:55:00;;;;;;;2.60;1.50;;;11.40;50.40;;;;;;5085022;28;20463;-61
2023/10/16 10:57:26;;;;;;;1.93;1.60;;;11.50;49.70;;;;;;5082228;28;20489;-61
2023/10/16 10:59:56;;;;;;;5.70;1.80;;;11.60;49.50;;;;;;5072867;28;20745;-60
2023/10/16 11:03:08;;;;;;;2.13;1.63;;;11.80;49.20;;;;;;5070618;28;20442;-56
2023/10/16 11:05:22;;;;;;;4.33;1.77;;;11.90;48.10;;;;;;5064697;28;20438;-58
2023/10/16 11:10:33;;;;;;;3.53;1.60;;;12.20;48.70;;;;;;5083149;28;20522;-62
2023/10/16 11:13:04;;;;;;;1.63;1.50;;;12.40;47.40;;;;;;5077747;28;20534;-62
2023/10/16 11:15:30;;;;;;;4.07;1.63;;;12.60;46.80;;;;;;5081917;28;20174;-62
2023/10/16 11:18:05;;;;;;;5.33;1.80;;;12.80;46.30;;;;;;5080645;28;20658;-62
2023/10/16 11:20:36;;;;;;;2.60;1.60;;;13.00;46.00;;;;;;5081555;28;20456;-61
2023/10/16 11:23:15;;;;;;;2.63;1.50;;;13.20;45.30;;;;;;5081908;28;20462;-60
2023/10/16 11:25:46;;;;;;;2.60;1.50;;;13.40;44.90;;;;;;5083763;28;21102;-60
2023/10/16 11:28:20;;;;;;;4.30;1.70;;;13.70;45.40;;;;;;5079457;28;20491;-61
2023/10/16 11:30:47;;;;;;;5.43;1.73;;;14.00;45.20;;;;;;5083242;28;20419;-60
2023/10/16 11:33:12;;;;;;;4.37;1.70;;;14.30;45.00;;;;;;5082758;28;20472;-60
2023/10/16 11:35:44;;;;;;;3.63;1.60;;;14.70;44.20;;;;;;5081496;28;20424;-60
2023/10/16 11:38:19;;;;;;;5.27;1.87;;;15.10;43.20;;;;;;5077910;28;20193;-62
2023/10/16 11:40:47;;;;;;;4.20;1.47;;;15.70;42.00;;;;;;5073802;28;20456;-62
2023/10/16 11:43:18;;;;;;;2.87;1.27;;;16.30;40.00;;;;;;5077489;28;20470;-62
2023/10/16 11:45:45;;;;;;;8.40;1.40;;;16.80;38.70;;;;;;5082006;28;20424;-62
2023/10/16 11:51:08;;;;;;;2.43;1.30;;;17.80;36.80;;;;;;5077933;28;20494;-63
2023/10/16 11:53:36;;;;;;;3.70;1.10;;;18.40;34.30;;;;;;5083864;28;20418;-63
2023/10/16 11:56:02;;;;;;;2.00;1.20;;;18.80;32.70;;;;;;5079750;28;20491;-63
2023/10/16 11:58:31;;;;;;;1.70;1.37;;;19.30;32.30;;;;;;5079670;28;20890;-62
2023/10/16 12:01:08;;;;;;;3.63;1.40;;;19.70;32.20;;;;;;5078861;28;20702;-64
2023/10/16 12:03:34;;;;;;;3.80;1.63;;;20.20;31.80;;;;;;5084087;28;20434;-62
2023/10/16 12:05:59;;;;;;;3.40;1.20;;;20.60;30.80;;;;;;5079578;28;20424;-62
2023/10/16 12:08:25;;;;;;;2.77;1.43;;;20.90;30.60;;;;;;5076761;28;21026;-62
2023/10/16 12:10:51;;;;;;;1.30;1.17;;;21.20;30.40;;;;;;5083541;28;20170;-63
2023/10/16 12:13:17;;;;;;;4.53;1.10;;;21.40;30.10;;;;;;5078950;28;20177;-62
2023/10/16 12:15:43;;;;;;;1.83;1.30;;;21.70;29.90;;;;;;5080700;28;20287;-61
2023/10/16 12:18:09;;;;;;;3.17;1.30;;;21.90;29.50;;;;;;5081015;28;20184;-61
2023/10/16 12:20:37;;;;;;;3.63;1.23;;;22.00;28.90;;;;;;5083334;28;20200;-63
2023/10/16 12:23:04;;;;;;;4.93;1.53;;;22.00;28.80;;;;;;5081559;28;20174;-61
2023/10/16 12:25:30;;;;;;;2.47;1.70;;;21.90;29.00;;;;;;5080999;28;20218;-61
2023/10/16 12:27:55;;;;;;;1.47;1.10;;;21.80;29.20;;;;;;5081267;28;20189;-61
2023/10/16 12:30:22;;;;;;;1.97;1.33;;;21.60;30.00;;;;;;5079526;28;20208;-61
2023/10/16 12:32:49;;;;;;;5.37;1.97;;;21.30;29.50;;;;;;5081339;28;20187;-61
2023/10/16 12:35:18;;;;;;;2.00;1.30;;;20.90;29.70;;;;;;5082069;28;20177;-61
2023/10/16 12:37:44;;;;;;;1.80;1.60;;;20.50;30.50;;;;;;5081403;28;20458;-59
2023/10/16 12:42:55;;;;;;;6.67;2.20;;;20.00;32.60;;;;;;5079653;28;20430;-59
2023/10/16 12:45:25;;;;;;;4.33;1.73;;;19.80;32.70;;;;;;5081607;28;20432;-57
2023/10/16 12:47:52;;;;;;;4.40;1.27;;;19.60;33.50;;;;;;5081277;28;20676;-59
2023/10/16 12:50:23;;;;;;;1.53;1.40;;;19.60;32.80;;;;;;5077007;28;20438;-59
2023/10/16 12:52:56;;;;;;;2.27;1.60;;;19.40;32.80;;;;;;5077083;28;20570;-58
2023/10/16 12:55:23;;;;;;;2.73;1.87;;;19.40;32.80;;;;;;5077641;28;20434;-59
2023/10/16 12:57:50;;;;;;;2.33;1.40;;;19.20;32.40;;;;;;5078443;28;20452;-59
2023/10/16 13:00:26;;;;;;;5.30;1.83;;;19.10;33.70;;;;;;5080189;28;20479;-60
2023/10/16 13:02:52;;;;;;;2.30;1.73;;;19.00;33.30;;;;;;5079669;28;20435;-60
2023/10/16 13:05:19;;;;;;;5.80;1.80;;;18.90;33.30;;;;;;5078811;28;20433;-60
2023/10/16 13:07:47;;;;;;;2.20;1.80;;;18.90;33.30;;;;;;5077572;28;20466;-60
2023/10/16 13:10:20;;;;;;;2.73;1.50;;;18.90;33.20;;;;;;5078821;28;20820;-59
2023/10/16 13:12:47;;;;;;;1.77;1.50;;;18.90;32.90;;;;;;5078504;28;20901;-60
2023/10/16 13:15:24;;;;;;;4.03;1.80;;;18.70;32.00;;;;;;5079081;28;20510;-59
2023/10/16 13:17:50;;;;;;;2.17;1.63;;;18.50;31.50;;;;;;5076868;28;20848;-59
2023/10/16 13:20:19;;;;;;;2.80;1.77;;;18.50;31.40;;;;;;5074931;28;20990;-60
2023/10/16 13:22:49;;;;;;;2.00;1.80;;;18.40;31.70;;;;;;5075713;28;20488;-61
2023/10/16 13:25:16;;;;;;;3.73;1.83;;;18.30;32.40;;;;;;5079695;28;20474;-60
2023/10/16 13:27:44;;;;;;;3.60;1.93;;;18.20;32.70;;;;;;5080946;28;20443;-60
2023/10/16 13:30:11;;;;;;;4.20;2.23;;;18.20;32.70;;;;;;5080164;28;20829;-59
2023/10/16 13:32:41;;;;;;;4.47;2.13;;;18.10;32.30;;;;;;5074592;28;20431;-60
2023/10/16 13:35:12;;;;;;;2.60;1.70;;;18.00;32.90;;;;;;5071912;28;21036;-60
2023/10/16 13:37:48;;;;;;;2.73;2.00;;;18.00;32.70;;;;;;5077537;28;20459;-60
2023/10/16 13:40:20;;;;;;;3.83;1.97;;;17.80;33.50;;;;;;5072032;28;21238;-60
2023/10/16 13:42:50;;;;;;;4.33;2.17;;;17.70;34.10;;;;;;5079381;28;20427;-59
2023/10/16 13:45:16;;;;;;;2.70;2.27;;;17.60;33.90;;;;;;5082078;28;20503;-59
2023/10/16 13:47:45;;;;;;;4.03;2.20;;;17.70;34.90;;;;;;5074606;28;20452;-60
2023/10/16 13:50:16;;;;;;;8.60;2.50;;;17.80;34.00;;;;;;5074707;28;20435;-60
2023/10/16 13:52:46;;;;;;;6.83;2.50;;;17.80;34.10;;;;;;5078785;28;20482;-63
2023/10/16 13:55:12;;;;;;;5.13;2.87;;;17.90;34.50;;;;;;5072283;28;20428;-59
2023/10/16 13:57:47;;;;;;;2.40;2.20;;;17.90;34.60;;;;;;5080624;28;20969;-59
2023/10/16 14:00:29;;;;;;;4.23;2.30;;;17.90;34.60;;;;;;5075245;28;20463;-59
2023/10/16 14:03:17;;;;;;;7.10;2.70;;;18.00;34.80;;;;;;5078005;28;20419;-59
2023/10/16 14:05:47;;;;;;;3.50;2.37;;;18.10;34.90;;;;;;5077609;28;20436;-58
2023/10/16 14:08:17;;;;;;;3.10;2.77;;;18.20;34.50;;;;;;5073144;28;20436;-58
2023/10/16 14:10:52;;;;;;;5.57;2.33;;;18.40;34.50;;;;;;5081035;28;20508;-58
2023/10/16 14:13:21;;;;;;;4.63;2.70;;;18.60;35.60;;;;;;5080957;28;20956;-56
2023/10/16 14:15:51;;;;;;;3.00;2.13;;;18.80;34.30;;;;;;5081215;28;20487;-58
2023/10/16 14:18:21;;;;;;;4.50;2.50;;;19.00;33.40;;;;;;5079805;28;20426;-57
2023/10/16 14:20:48;;;;;;;3.23;2.67;;;19.10;33.40;;;;;;5081612;28;22118;-57
2023/10/16 14:23:15;;;;;;;3.13;2.40;;;19.30;33.70;;;;;;5078500;28;20467;-58
2023/10/16 14:25:47;;;;;;;3.67;2.20;;;19.50;33.70;;;;;;5079273;28;20419;-56
2023/10/16 14:28:33;;;;;;;9.77;3.30;;;19.60;33.90;;;;;;5078784;28;20432;-57
2023/10/16 14:31:04;;;;;;;6.83;3.20;;;19.60;34.60;;;;;;5085475;28;20806;-56
2023/10/16 14:33:31;;;;;;;4.17;3.00;;;19.80;34.80;;;;;;5084607;28;21579;-56
2023/10/16 14:35:58;;;;;;;4.23;3.37;;;20.00;34.60;;;;;;5081745;28;20435;-58
2023/10/16 14:38:28;;;;;;;4.13;2.90;;;20.20;34.40;;;;;;5075963;28;20461;-58
2023/10/16 14:41:04;;;;;;;4.13;2.60;;;20.60;33.50;;;;;;5076659;28;20558;-59
2023/10/16 14:43:30;;;;;;;3.03;2.50;;;21.10;32.80;;;;;;5083770;28;20514;-59
2023/10/16 14:45:58;;;;;;;4.77;2.70;;;21.80;32.40;;;;;;5086063;28;20945;-59
2023/10/16 14:48:23;;;;;;;5.93;3.13;;;22.50;31.40;;;;;;5081488;28;20512;-59
2023/10/16 14:50:50;;;;;;;4.83;2.80;;;23.10;30.30;;;;;;5080836;28;20475;-58
2023/10/16 14:53:19;;;;;;;7.73;2.93;;;23.50;29.70;;;;;;5085116;28;20175;-59
2023/10/16 14:55:48;;;;;;;3.03;2.73;;;23.20;29.30;;;;;;5084475;28;20419;-57
2023/10/16 14:58:14;;;;;;;4.03;2.87;;;21.90;29.50;;;;;;5083814;28;20915;-59
2023/10/16 15:00:45;;;;;;;3.77;3.47;;;20.20;30.90;;;;;;5087273;28;21062;-58
2023/10/16 15:03:13;;;;;;;6.93;3.43;;;18.60;33.40;;;;;;5082649;28;20507;-59
2023/10/16 15:05:40;;;;;;;4.67;3.60;;;17.40;35.40;;;;;;5087592;28;20423;-58
2023/10/16 15:08:13;;;;;;;5.47;3.10;;;17.70;36.60;;;;;;5084950;28;20455;-58
2023/10/16 15:10:40;;;;;;;4.23;3.20;;;19.30;35.40;;;;;;5078603;28;20431;-57
2023/10/16 15:13:06;;;;;;;6.40;3.23;;;21.10;34.00;;;;;;5082551;28;20523;-58
2023/10/16 15:15:31;;;;;;;6.53;2.77;;;22.80;31.80;;;;;;5082622;28;21030;-57
2023/10/16 15:17:57;;;;;;;9.60;3.17;;;24.20;30.40;;;;;;5076960;28;20284;-57
2023/10/16 15:20:23;;;;;;;3.90;2.80;;;25.20;29.30;;;;;;5078934;28;20190;-58
2023/10/16 15:22:48;;;;;;;7.83;3.60;;;25.80;27.90;;;;;;5082507;28;20776;-57